Time;durP1;ratioP1;P1;durP2;ratioP2;P2;SDS_P1;SDS_P2;PMS_P1;PMS_P2;Temp;Humidity;BMP_temperature;BMP_pressure;BME280_temperature;BME280_humidity;BME280_pressure;Samples;Min_cycle;Max_cycle;Signal;HPM_P1;HPM_P2
2022/04/30 00:03:26;;;;;;;;;;;;;;;9.62;100.00;98995.50;10358692;28;19929;-80
2022/04/30 00:08:29;;;;;;;;;;;;;;;9.55;100.00;98997.91;10345565;28;20057;-78
2022/04/30 00:13:37;;;;;;;;;;;;;;;9.39;100.00;98995.78;10344711;28;20072;-79
2022/04/30 00:18:40;;;;;;;;;;;;;;;9.10;100.00;99000.09;10339733;28;19929;-80
2022/04/30 00:23:42;;;;;;;;;;;;;;;9.09;100.00;98992.19;10328566;28;19925;-79
2022/04/30 00:28:47;;;;;;;;;;;;;;;9.07;100.00;98992.31;10331419;28;19961;-80
2022/04/30 00:33:50;;;;;;;;;;;;;;;9.03;100.00;98987.34;10368610;28;19956;-80
2022/04/30 00:38:52;;;;;;;;;;;;;;;9.01;100.00;98983.94;10353452;28;19976;-81
2022/04/30 00:43:56;;;;;;;;;;;;;;;8.92;100.00;98977.56;10380119;28;19925;-79
2022/04/30 00:49:01;;;;;;;;;;;;;;;8.90;100.00;98983.06;10368033;28;19960;-79
2022/04/30 00:54:05;;;;;;;;;;;;;;;8.89;100.00;98985.91;10342140;28;19929;-80
2022/04/30 00:59:10;;;;;;;;;;;;;;;8.87;100.00;98977.13;10343684;28;19926;-80
2022/04/30 01:04:13;;;;;;;;;;;;;;;8.80;100.00;98966.06;10345826;28;19932;-77
2022/04/30 01:09:17;;;;;;;;;;;;;;;8.74;100.00;98967.47;10359646;28;20071;-79
2022/04/30 01:14:22;;;;;;;;;;;;;;;8.69;100.00;98963.50;10362972;28;20018;-79
2022/04/30 01:19:27;;;;;;;;;;;;;;;8.67;100.00;98965.44;10361933;28;19921;-79
2022/04/30 01:24:31;;;;;;;;;;;;;;;8.60;100.00;98963.31;10360185;28;19949;-78
2022/04/30 01:29:36;;;;;;;;;;;;;;;8.56;100.00;98969.09;10372433;28;20462;-81
2022/04/30 01:40:03;;;;;;;;;;;;;;;8.55;100.00;98965.56;10364754;28;19929;-80
2022/04/30 01:45:06;;;;;;;;;;;;;;;8.43;100.00;98969.28;10393257;28;19909;-80
2022/04/30 01:50:09;;;;;;;;;;;;;;;8.62;100.00;98969.41;10394866;28;19917;-80
2022/04/30 01:55:14;;;;;;;;;;;;;;;8.75;100.00;98968.34;10406259;28;19926;-81
2022/04/30 02:00:20;;;;;;;;;;;;;;;8.68;100.00;98983.28;10361671;28;19994;-80
2022/04/30 02:05:23;;;;;;;;;;;;;;;8.64;100.00;98980.84;10367986;28;21218;-81
2022/04/30 02:10:29;;;;;;;;;;;;;;;8.52;100.00;98978.41;10354448;28;20278;-79
2022/04/30 02:15:33;;;;;;;;;;;;;;;8.50;100.00;98975.88;10350714;28;20003;-81
2022/04/30 02:20:38;;;;;;;;;;;;;;;8.48;100.00;98969.78;10353520;28;20364;-81
2022/04/30 02:25:44;;;;;;;;;;;;;;;8.26;100.00;98960.88;10347730;28;19935;-80
2022/04/30 02:30:48;;;;;;;;;;;;;;;8.14;100.00;98962.78;10350141;28;19922;-80
2022/04/30 02:35:51;;;;;;;;;;;;;;;8.08;100.00;98975.88;10342221;28;19976;-81
2022/04/30 02:40:55;;;;;;;;;;;;;;;8.10;100.00;98958.69;10369804;28;20349;-80
2022/04/30 02:45:58;;;;;;;;;;;;;;;8.01;100.00;98959.44;10370991;28;19922;-79
2022/04/30 02:51:01;;;;;;;;;;;;;;;7.81;100.00;98958.50;10354756;28;19929;-79
2022/04/30 02:56:05;;;;;;;;;;;;;;;7.74;100.00;98954.59;10343107;28;19936;-79
2022/04/30 03:01:08;;;;;;;;;;;;;;;7.66;100.00;98955.25;10349888;28;19956;-80
2022/04/30 03:06:13;;;;;;;;;;;;;;;7.61;100.00;98957.47;10357171;28;19935;-80
2022/04/30 03:11:19;;;;;;;;;;;;;;;7.54;100.00;98965.19;10370584;28;20026;-80
2022/04/30 03:21:54;;;;;;;;;;;;;;;7.45;100.00;98955.25;10296440;28;19932;-80
2022/04/30 03:26:58;;;;;;;;;;;;;;;7.33;100.00;98955.28;10355610;28;20866;-80
2022/04/30 03:32:01;;;;;;;;;;;;;;;7.31;100.00;98951.88;10366561;28;20021;-80
2022/04/30 03:37:04;;;;;;;;;;;;;;;7.31;100.00;98954.56;10355784;28;19925;-79
2022/04/30 03:42:08;;;;;;;;;;;;;;;7.28;100.00;98956.66;10358036;28;20020;-80
2022/04/30 03:47:11;;;;;;;;;;;;;;;7.18;100.00;98960.06;10355028;28;19975;-79
2022/04/30 03:52:14;;;;;;;;;;;;;;;7.11;100.00;98960.72;10353765;28;19929;-80
2022/04/30 03:57:19;;;;;;;;;;;;;;;7.12;100.00;98973.97;10371648;28;19912;-79
2022/04/30 04:02:23;;;;;;;;;;;;;;;7.05;100.00;98962.06;10397569;28;19921;-80
2022/04/30 04:07:29;;;;;;;;;;;;;;;7.06;100.00;98969.97;10368051;28;20630;-80
2022/04/30 04:12:34;;;;;;;;;;;;;;;6.95;100.00;98964.63;10349408;28;19922;-80
2022/04/30 04:17:39;;;;;;;;;;;;;;;6.89;100.00;98973.16;10341463;28;20305;-79
2022/04/30 04:22:42;;;;;;;;;;;;;;;6.85;100.00;98974.41;10315302;28;19928;-81
2022/04/30 04:27:46;;;;;;;;;;;;;;;6.86;100.00;98968.06;10310502;28;19930;-79
2022/04/30 04:32:49;;;;;;;;;;;;;;;6.82;100.00;98966.59;10300932;28;19930;-80
2022/04/30 04:37:52;;;;;;;;;;;;;;;6.79;100.00;98973.06;10303099;28;20447;-80
2022/04/30 04:42:56;;;;;;;;;;;;;;;6.84;100.00;98975.38;10319499;28;19925;-79
2022/04/30 04:47:59;;;;;;;;;;;;;;;6.86;100.00;98973.44;10319620;28;19972;-81
2022/04/30 04:53:02;;;;;;;;;;;;;;;6.85;100.00;98982.44;10315889;28;19953;-80
2022/04/30 04:58:06;;;;;;;;;;;;;;;6.89;100.00;98986.56;10334624;28;20012;-82
2022/04/30 05:03:09;;;;;;;;;;;;;;;6.88;100.00;98976.84;10319250;28;19934;-81
2022/04/30 05:08:11;;;;;;;;;;;;;;;6.88;100.00;98984.88;10321420;28;19936;-81
2022/04/30 05:13:16;;;;;;;;;;;;;;;6.94;100.00;98992.41;10334695;28;20040;-80
2022/04/30 05:18:19;;;;;;;;;;;;;;;7.02;100.00;98992.63;10317510;28;20442;-81
2022/04/30 05:23:22;;;;;;;;;;;;;;;7.04;100.00;98990.69;10288456;28;19929;-81
2022/04/30 05:28:26;;;;;;;;;;;;;;;7.07;100.00;99002.97;10286871;28;19926;-80
2022/04/30 05:33:33;;;;;;;;;;;;;;;7.04;100.00;98997.88;10274948;28;20008;-80
2022/04/30 05:38:36;;;;;;;;;;;;;;;7.12;100.00;99005.25;10278257;28;19922;-80
2022/04/30 05:43:40;;;;;;;;;;;;;;;7.22;100.00;99011.59;10287753;28;20290;-80
2022/04/30 05:48:43;;;;;;;;;;;;;;;7.28;100.00;99005.72;10274202;28;20450;-79
2022/04/30 05:53:46;;;;;;;;;;;;;;;7.27;100.00;99009.38;10278669;28;19932;-81
2022/04/30 05:58:50;;;;;;;;;;;;;;;7.29;100.00;99012.78;10289835;28;19933;-81
2022/04/30 06:03:53;;;;;;;;;;;;;;;7.27;100.00;99017.41;10290536;28;19992;-80
2022/04/30 06:08:58;;;;;;;;;;;;;;;7.34;100.00;99013.28;10273599;28;20212;-80
2022/04/30 06:14:02;;;;;;;;;;;;;;;7.26;100.00;99013.03;10275598;28;19922;-80
2022/04/30 06:19:05;;;;;;;;;;;;;;;7.37;100.00;99021.03;10283632;28;20705;-80
2022/04/30 06:24:15;;;;;;;;;;;;;;;7.30;100.00;99027.91;10353791;28;19925;-80
2022/04/30 06:29:22;;;;;;;;;;;;;;;7.32;100.00;99041.16;10350787;28;19934;-80
2022/04/30 06:34:25;;;;;;;;;;;;;;;7.37;100.00;99047.84;10346339;28;19925;-80
2022/04/30 06:39:28;;;;;;;;;;;;;;;7.41;100.00;99048.44;10358694;28;19929;-81
2022/04/30 06:44:32;;;;;;;;;;;;;;;7.36;100.00;99048.81;10362110;28;19932;-77
2022/04/30 06:49:34;;;;;;;;;;;;;;;7.45;100.00;99054.44;10351559;28;20039;-79
2022/04/30 06:59:59;;;;;;;;;;;;;;;7.56;100.00;99043.69;10369141;28;19921;-80
2022/04/30 07:05:07;;;;;;;;;;;;;;;7.80;100.00;99054.19;10379495;28;21175;-80
2022/04/30 07:10:09;;;;;;;;;;;;;;;7.86;100.00;99047.47;10385318;28;20744;-78
2022/04/30 07:15:14;;;;;;;;;;;;;;;7.98;100.00;99046.44;10354935;28;19926;-79
2022/04/30 07:20:17;;;;;;;;;;;;;;;7.90;100.00;99053.41;10352334;28;19926;-79
2022/04/30 07:25:19;;;;;;;;;;;;;;;8.10;100.00;99059.78;10364050;28;20440;-79
2022/04/30 07:30:24;;;;;;;;;;;;;;;8.27;100.00;99066.41;10355365;28;19957;-78
2022/04/30 07:35:26;;;;;;;;;;;;;;;8.23;100.00;99054.25;10358838;28;19929;-80
2022/04/30 07:40:29;;;;;;;;;;;;;;;8.45;100.00;99066.66;10361995;28;19929;-80
2022/04/30 07:45:33;;;;;;;;;;;;;;;8.54;100.00;99068.59;10341068;28;19929;-80
2022/04/30 07:50:36;;;;;;;;;;;;;;;8.81;100.00;99059.13;10338880;28;19936;-79
2022/04/30 07:55:39;;;;;;;;;;;;;;;8.90;100.00;99058.31;10338906;28;20417;-79
2022/04/30 08:00:44;;;;;;;;;;;;;;;8.89;100.00;99061.97;10337897;28;19930;-79
2022/04/30 08:05:46;;;;;;;;;;;;;;;9.17;100.00;99053.34;10356213;28;19929;-79
2022/04/30 08:10:49;;;;;;;;;;;;;;;9.40;100.00;99052.13;10336140;28;19936;-79
2022/04/30 08:15:53;;;;;;;;;;;;;;;9.48;100.00;99061.34;10351635;28;19929;-79
2022/04/30 08:20:56;;;;;;;;;;;;;;;9.76;100.00;99048.91;10361796;28;20262;-78
2022/04/30 08:25:59;;;;;;;;;;;;;;;10.12;100.00;99046.50;10365048;28;19930;-79
2022/04/30 08:31:03;;;;;;;;;;;;;;;10.11;100.00;99043.97;10373078;28;20378;-77
2022/04/30 08:36:06;;;;;;;;;;;;;;;10.26;100.00;99037.13;10338458;28;20646;-78
2022/04/30 08:41:09;;;;;;;;;;;;;;;10.27;100.00;99030.75;10344864;28;20267;-78
2022/04/30 08:46:13;;;;;;;;;;;;;;;10.41;100.00;99034.00;10337170;28;20445;-80
2022/04/30 08:51:16;;;;;;;;;;;;;;;10.57;100.00;99031.56;10344152;28;20067;-76
2022/04/30 08:56:19;;;;;;;;;;;;;;;10.67;100.00;99025.28;10342685;28;20054;-80
2022/04/30 09:01:23;;;;;;;;;;;;;;;10.88;100.00;99022.34;10334969;28;19929;-79
2022/04/30 09:06:26;;;;;;;;;;;;;;;11.06;100.00;99023.28;10333577;28;20016;-81
2022/04/30 09:11:29;;;;;;;;;;;;;;;11.25;100.00;99014.25;10322668;28;20441;-80
2022/04/30 09:16:34;;;;;;;;;;;;;;;11.25;100.00;99005.28;10358279;28;20016;-80
2022/04/30 09:21:36;;;;;;;;;;;;;;;11.19;100.00;99011.28;10340293;28;19929;-79
2022/04/30 09:26:39;;;;;;;;;;;;;;;11.43;100.00;99004.47;10358865;28;19988;-78
2022/04/30 09:31:48;;;;;;;;;;;;;;;11.43;100.00;99004.47;10325340;28;19979;-79
2022/04/30 09:42:14;;;;;;;;;;;;;;;11.46;100.00;98988.00;10321719;28;19929;-80
2022/04/30 09:47:19;;;;;;;;;;;;;;;11.62;100.00;98981.91;10362599;28;19926;-79
2022/04/30 09:57:43;;;;;;;;;;;;;;;12.17;100.00;98979.00;10348624;28;19936;-79
2022/04/30 10:02:49;;;;;;;;;;;;;;;12.29;100.00;98970.66;10362126;28;21287;-79
2022/04/30 10:07:52;;;;;;;;;;;;;;;12.39;100.00;98970.56;10359595;28;19936;-80
2022/04/30 10:12:57;;;;;;;;;;;;;;;12.68;100.00;98970.19;10332553;28;19952;-79
2022/04/30 10:18:01;;;;;;;;;;;;;;;12.60;100.00;98964.72;10352021;28;20031;-78
2022/04/30 10:23:06;;;;;;;;;;;;;;;12.58;100.00;98958.66;10346826;28;19957;-79
2022/04/30 10:28:17;;;;;;;;;;;;;;;12.62;100.00;98960.88;10354191;28;20282;-79
2022/04/30 10:33:21;;;;;;;;;;;;;;;13.00;100.00;98952.41;10379116;28;19930;-79
2022/04/30 10:38:25;;;;;;;;;;;;;;;13.43;100.00;98938.00;10346051;28;19929;-80
2022/04/30 10:43:31;;;;;;;;;;;;;;;13.52;100.00;98943.25;10332584;28;19935;-80
2022/04/30 10:48:36;;;;;;;;;;;;;;;13.47;100.00;98950.19;10347421;28;19980;-80
2022/04/30 10:53:40;;;;;;;;;;;;;;;13.74;100.00;98930.06;10349256;28;20012;-79
2022/04/30 10:58:43;;;;;;;;;;;;;;;13.83;100.00;98929.03;10370360;28;20025;-78
2022/04/30 11:03:53;;;;;;;;;;;;;;;13.69;100.00;98922.44;10389809;28;19948;-80
2022/04/30 11:09:00;;;;;;;;;;;;;;;14.10;100.00;98910.72;10394701;28;19921;-80
2022/04/30 11:14:08;;;;;;;;;;;;;;;14.44;100.00;98914.22;10389883;28;19948;-81
2022/04/30 11:19:12;;;;;;;;;;;;;;;14.43;100.00;98907.09;10338729;28;20055;-81
2022/04/30 11:24:23;;;;;;;;;;;;;;;14.66;100.00;98909.88;10350140;28;19960;-80
2022/04/30 11:29:26;;;;;;;;;;;;;;;15.08;100.00;98906.00;10346231;28;19930;-81
2022/04/30 11:34:30;;;;;;;;;;;;;;;15.45;100.00;98897.28;10346504;28;20019;-81
2022/04/30 11:39:35;;;;;;;;;;;;;;;15.51;100.00;98893.81;10359154;28;19929;-81
2022/04/30 11:44:38;;;;;;;;;;;;;;;15.25;100.00;98884.16;10328210;28;19933;-81
2022/04/30 11:49:43;;;;;;;;;;;;;;;15.45;100.00;98878.28;10345752;28;19925;-80
2022/04/30 11:54:46;;;;;;;;;;;;;;;15.34;100.00;98877.69;10328319;28;20313;-80
2022/04/30 11:59:49;;;;;;;;;;;;;;;15.85;98.32;98878.97;10358711;28;19973;-81
2022/04/30 12:04:53;;;;;;;;;;;;;;;16.05;100.00;98875.75;10341489;28;20495;-80
2022/04/30 12:09:56;;;;;;;;;;;;;;;15.63;96.74;98877.97;10356188;28;19936;-80
2022/04/30 12:14:59;;;;;;;;;;;;;;;15.89;96.56;98874.88;10354868;28;20023;-81
2022/04/30 12:25:28;;;;;;;;;;;;;;;15.55;94.14;98859.84;10337517;28;20027;-81
2022/04/30 12:30:33;;;;;;;;;;;;;;;15.52;100.00;98846.63;10334125;28;20390;-80
2022/04/30 12:35:38;;;;;;;;;;;;;;;15.60;100.00;98838.41;10338521;28;19965;-80
2022/04/30 12:40:42;;;;;;;;;;;;;;;15.83;100.00;98849.25;10331373;28;19936;-80
2022/04/30 12:45:47;;;;;;;;;;;;;;;15.88;100.00;98840.56;10345229;28;20279;-81
2022/04/30 12:50:51;;;;;;;;;;;;;;;16.32;98.74;98841.63;10339674;28;19930;-82
2022/04/30 12:55:54;;;;;;;;;;;;;;;16.37;93.06;98828.28;10344417;28;19929;-81
2022/04/30 13:00:57;;;;;;;;;;;;;;;16.41;91.64;98831.47;10337062;28;20004;-80
2022/04/30 13:06:02;;;;;;;;;;;;;;;16.97;91.92;98820.03;10343810;28;20441;-80
2022/04/30 13:16:25;;;;;;;;;;;;;;;16.94;84.20;98810.38;10352033;28;19937;-81
2022/04/30 13:23:42;;;;;;;;;;;;;;;16.76;92.55;98813.50;10498438;27;19924;-57
2022/04/30 13:28:50;;;;;;;;;;;;;;;16.84;82.22;98812.56;10496766;28;19955;-58
2022/04/30 13:33:53;;;;;;;;;;;;;;;17.71;72.57;98804.34;10497545;28;20502;-58
2022/04/30 13:38:58;;;;;;;;;;;;;;;17.30;74.73;98791.47;10496889;28;19939;-57
2022/04/30 13:44:01;;;;;;;;;;;;;;;17.96;71.88;98787.53;10496496;28;20397;-56
2022/04/30 13:49:05;;;;;;;;;;;;;;;18.20;68.68;98782.66;10496324;28;21109;-56
2022/04/30 13:54:13;;;;;;;;;;;;;;;18.66;64.87;98773.00;10497054;28;19964;-58
2022/04/30 13:59:16;;;;;;;;;;;;;;;18.78;64.16;98769.47;10494854;28;20002;-59
2022/04/30 14:04:19;;;;;;;;;;;;;;;19.02;61.94;98764.50;10525929;22;19967;-58
2022/04/30 14:09:24;;;;;;;;;;;;;;;19.22;58.73;98758.25;10532328;28;20023;-57
2022/04/30 14:19:47;;;;;;;;;;;;;;;19.11;59.08;98756.13;10520740;28;19932;-59
2022/04/30 14:24:52;;;;;;;;;;;;;;;18.69;60.48;98757.06;10519545;28;19932;-57
2022/04/30 14:29:55;;;;;;;;;;;;;;;18.77;61.11;98756.03;10457398;28;20588;-58
2022/04/30 14:35:00;;;;;;;;;;;;;;;19.26;58.95;98759.47;10410594;28;20359;-58
2022/04/30 14:40:07;;;;;;;;;;;;;;;18.48;56.32;98752.56;10408302;28;19933;-59
2022/04/30 14:45:10;;;;;;;;;;;;;;;18.46;57.69;98750.06;10408833;28;20313;-59
2022/04/30 14:50:13;;;;;;;;;;;;;;;18.50;55.33;98744.22;10409920;28;19933;-59
2022/04/30 14:55:23;;;;;;;;;;;;;;;17.69;58.78;98749.25;10394481;28;19941;-57
2022/04/30 15:00:26;;;;;;;;;;;;;;;18.05;58.10;98739.19;10392900;28;19940;-57
2022/04/30 15:05:29;;;;;;;;;;;;;;;18.31;58.94;98736.59;10392676;28;19933;-57
2022/04/30 15:10:33;;;;;;;;;;;;;;;18.26;57.01;98738.25;10393505;28;21122;-58
2022/04/30 15:15:37;;;;;;;;;;;;;;;18.63;57.28;98733.34;10390663;28;19940;-58
2022/04/30 15:20:40;;;;;;;;;;;;;;;18.93;56.72;98738.41;10392609;28;19945;-58
2022/04/30 15:25:44;;;;;;;;;;;;;;;18.43;53.20;98730.53;10390123;28;19933;-57
2022/04/30 15:30:48;;;;;;;;;;;;;;;18.36;54.81;98725.06;10396719;28;19993;-57
2022/04/30 15:35:51;;;;;;;;;;;;;;;18.18;54.58;98725.63;10406998;28;19933;-59
2022/04/30 15:40:57;;;;;;;;;;;;;;;18.48;56.04;98741.66;10406685;28;19933;-59
2022/04/30 15:46:00;;;;;;;;;;;;;;;18.58;56.10;98730.38;10404840;28;19933;-58
2022/04/30 15:56:25;;;;;;;;;;;;;;;18.87;53.14;98722.88;10406293;28;19940;-60
2022/04/30 16:01:29;;;;;;;;;;;;;;;18.55;54.02;98728.91;10406736;28;19983;-57
2022/04/30 16:06:32;;;;;;;;;;;;;;;18.67;53.37;98720.94;10406148;28;20547;-58
2022/04/30 16:11:36;;;;;;;;;;;;;;;18.69;57.61;98715.28;10407099;28;19955;-57
2022/04/30 16:16:39;;;;;;;;;;;;;;;18.25;55.38;98720.19;10406348;28;19933;-56
2022/04/30 16:21:42;;;;;;;;;;;;;;;18.31;55.16;98711.19;10405650;28;19933;-59
2022/04/30 16:26:49;;;;;;;;;;;;;;;18.73;54.53;98705.63;10404662;28;19956;-61
2022/04/30 16:31:52;;;;;;;;;;;;;;;18.51;55.97;98713.97;10404059;28;19995;-62
2022/04/30 16:36:56;;;;;;;;;;;;;;;18.54;54.75;98713.56;10386947;28;19933;-59
2022/04/30 16:42:00;;;;;;;;;;;;;;;18.42;55.29;98710.59;10404226;28;20169;-63
2022/04/30 16:47:04;;;;;;;;;;;;;;;17.84;56.15;98705.50;10386520;28;20016;-62
2022/04/30 16:52:22;;;;;;;;;;;;;;;18.13;57.07;98707.16;10403770;28;19936;-64
2022/04/30 16:57:27;;;;;;;;;;;;;;;18.35;57.24;98708.88;10403672;28;19951;-63
2022/04/30 17:02:30;;;;;;;;;;;;;;;18.11;57.42;98711.13;10396290;28;20636;-61
2022/04/30 17:07:34;;;;;;;;;;;;;;;18.27;57.33;98718.94;10388343;28;19947;-64
2022/04/30 17:12:39;;;;;;;;;;;;;;;17.97;58.32;98716.50;10370030;28;20071;-64
2022/04/30 17:17:42;;;;;;;;;;;;;;;17.89;58.96;98718.53;10387888;28;19999;-62
2022/04/30 17:22:46;;;;;;;;;;;;;;;17.83;59.03;98712.00;10387512;28;20020;-63
2022/04/30 17:27:51;;;;;;;;;;;;;;;17.64;59.70;98719.00;10386837;28;19965;-63
2022/04/30 17:38:19;;;;;;;;;;;;;;;17.27;61.30;98719.19;10402185;28;20047;-61
2022/04/30 17:43:28;;;;;;;;;;;;;;;16.90;62.07;98713.78;10402740;28;20330;-63
2022/04/30 17:48:35;;;;;;;;;;;;;;;16.51;64.26;98714.25;10401543;28;20401;-62
2022/04/30 17:53:39;;;;;;;;;;;;;;;16.11;67.77;98715.44;10384035;28;20308;-61
2022/04/30 17:58:43;;;;;;;;;;;;;;;15.70;73.71;98718.66;10384971;28;20035;-62
2022/04/30 18:03:48;;;;;;;;;;;;;;;15.20;78.88;98727.28;10402798;28;19932;-62
2022/04/30 18:08:52;;;;;;;;;;;;;;;15.04;83.32;98736.44;10405075;28;19933;-62
2022/04/30 18:13:56;;;;;;;;;;;;;;;14.84;82.20;98724.38;10409183;28;20529;-60
2022/04/30 18:18:59;;;;;;;;;;;;;;;14.55;85.77;98726.75;10392071;28;19968;-62
2022/04/30 18:24:01;;;;;;;;;;;;;;;14.31;91.57;98733.16;10391158;28;19939;-59
2022/04/30 18:29:06;;;;;;;;;;;;;;;13.99;100.00;98737.72;10409770;28;19933;-61
2022/04/30 18:34:09;;;;;;;;;;;;;;;13.78;100.00;98739.16;10409459;28;20027;-61
2022/04/30 18:39:12;;;;;;;;;;;;;;;13.58;100.00;98751.41;10409570;28;19933;-61
2022/04/30 18:44:18;;;;;;;;;;;;;;;13.40;100.00;98765.97;10408845;28;19940;-61
2022/04/30 18:49:21;;;;;;;;;;;;;;;13.23;100.00;98765.94;10409493;28;20938;-61
2022/04/30 19:05:07;;;;;;;;;;;;;;;12.87;100.00;98804.16;10405678;28;20019;-60
2022/04/30 19:10:09;;;;;;;;;;;;;;;12.77;100.00;98798.03;10407717;28;20477;-61
2022/04/30 19:15:14;;;;;;;;;;;;;;;12.66;100.00;98807.31;10407655;28;20385;-62
2022/04/30 19:20:17;;;;;;;;;;;;;;;12.46;100.00;98807.59;10406182;28;19932;-62
2022/04/30 19:25:20;;;;;;;;;;;;;;;12.36;100.00;98811.44;10407480;28;21301;-60
2022/04/30 19:30:49;;;;;;;;;;;;;;;12.30;100.00;98802.13;10407482;28;20422;-61
2022/04/30 19:35:54;;;;;;;;;;;;;;;12.10;100.00;98815.91;10389215;28;19933;-62
2022/04/30 19:40:57;;;;;;;;;;;;;;;11.96;100.00;98816.47;10406169;28;20391;-59
2022/04/30 19:46:02;;;;;;;;;;;;;;;11.91;100.00;98821.50;10387994;28;20456;-59
2022/04/30 19:51:13;;;;;;;;;;;;;;;11.96;100.00;98836.19;10386262;28;19994;-61
2022/04/30 19:56:16;;;;;;;;;;;;;;;11.86;100.00;98835.47;10405500;28;19928;-60
2022/04/30 20:01:19;;;;;;;;;;;;;;;11.90;100.00;98839.56;10395903;28;19939;-60
2022/04/30 20:06:26;;;;;;;;;;;;;;;11.80;100.00;98845.06;10404709;28;19933;-61
2022/04/30 20:16:50;;;;;;;;;;;;;;;11.74;100.00;98861.03;10405878;28;19939;-60
2022/04/30 20:21:56;;;;;;;;;;;;;;;11.65;100.00;98858.28;10405558;28;20313;-59
2022/04/30 20:26:59;;;;;;;;;;;;;;;11.58;100.00;98841.03;10406169;28;19955;-60
2022/04/30 20:37:24;;;;;;;;;;;;;;;11.43;100.00;98843.44;10403966;28;20353;-60
2022/04/30 20:42:27;;;;;;;;;;;;;;;11.34;100.00;98847.94;10404532;28;19933;-58
2022/04/30 20:47:30;;;;;;;;;;;;;;;11.33;100.00;98856.16;10403480;28;20312;-59
2022/04/30 20:52:36;;;;;;;;;;;;;;;11.25;100.00;98848.84;10404148;28;21396;-60
2022/04/30 20:57:39;;;;;;;;;;;;;;;11.13;100.00;98858.16;10404248;28;20043;-59
2022/04/30 21:02:41;;;;;;;;;;;;;;;10.98;100.00;98861.44;10403866;28;19933;-59
2022/04/30 21:07:46;;;;;;;;;;;;;;;10.86;100.00;98868.88;10403682;28;19933;-60
2022/04/30 21:12:49;;;;;;;;;;;;;;;10.78;100.00;98860.72;10383449;28;19933;-60
2022/04/30 21:17:52;;;;;;;;;;;;;;;10.69;100.00;98856.22;10401348;28;20409;-60
2022/04/30 21:23:08;;;;;;;;;;;;;;;10.68;100.00;98871.53;10401275;28;19932;-59
2022/04/30 21:28:11;;;;;;;;;;;;;;;10.62;100.00;98859.50;10401634;28;19933;-60
2022/04/30 21:33:15;;;;;;;;;;;;;;;10.59;100.00;98856.28;10401058;28;19940;-61
2022/04/30 21:38:19;;;;;;;;;;;;;;;10.61;100.00;98856.97;10401776;28;20696;-60
2022/04/30 21:43:23;;;;;;;;;;;;;;;10.53;100.00;98856.88;10405290;28;19936;-59
2022/04/30 21:48:26;;;;;;;;;;;;;;;10.48;100.00;98860.88;10410009;28;19933;-60
2022/04/30 21:53:30;;;;;;;;;;;;;;;10.26;100.00;98855.84;10410266;28;19933;-59
2022/04/30 22:04:20;;;;;;;;;;;;;;;10.26;100.00;98855.84;10401298;28;19933;-60
2022/04/30 22:09:26;;;;;;;;;;;;;;;10.22;100.00;98855.31;10410839;28;19933;-59
2022/04/30 22:14:29;;;;;;;;;;;;;;;10.15;100.00;98854.19;10424084;22;19925;-82
2022/04/30 22:19:31;;;;;;;;;;;;;;;10.10;100.00;98869.94;10388147;28;20028;-81
2022/04/30 22:24:38;;;;;;;;;;;;;;;9.94;100.00;98876.78;10405479;28;19933;-80
2022/04/30 22:29:41;;;;;;;;;;;;;;;9.90;100.00;98866.47;10404562;28;20775;-79
2022/04/30 22:34:45;;;;;;;;;;;;;;;9.67;100.00;98867.63;10407185;28;19925;-80
2022/04/30 22:45:10;;;;;;;;;;;;;;;9.59;100.00;98867.53;10402115;28;20805;-79
2022/04/30 22:50:13;;;;;;;;;;;;;;;9.57;100.00;98869.50;10405543;28;20333;-81
2022/04/30 22:55:17;;;;;;;;;;;;;;;9.40;100.00;98874.63;10392729;28;20017;-80
2022/04/30 23:00:20;;;;;;;;;;;;;;;9.19;100.00;98873.91;10393505;28;21012;-78
2022/04/30 23:05:24;;;;;;;;;;;;;;;9.17;100.00;98871.38;10386728;28;20807;-79
2022/04/30 23:10:29;;;;;;;;;;;;;;;9.13;100.00;98867.25;10377595;28;20075;-78
2022/04/30 23:15:31;;;;;;;;;;;;;;;9.10;100.00;98864.88;10383206;28;20016;-78
2022/04/30 23:20:34;;;;;;;;;;;;;;;9.08;100.00;98856.94;10380288;28;19933;-79
2022/04/30 23:25:38;;;;;;;;;;;;;;;9.01;100.00;98860.31;10380437;28;19977;-78
2022/04/30 23:30:41;;;;;;;;;;;;;;;8.93;100.00;98859.19;10396703;28;20020;-78
2022/04/30 23:35:44;;;;;;;;;;;;;;;8.91;100.00;98855.78;10398081;28;19936;-78
2022/04/30 23:40:49;;;;;;;;;;;;;;;8.83;100.00;98857.47;10407572;28;19971;-80
2022/04/30 23:45:52;;;;;;;;;;;;;;;8.86;100.00;98858.06;10405630;28;19988;-80
2022/04/30 23:50:55;;;;;;;;;;;;;;;8.82;100.00;98856.63;10406315;28;19968;-80
2022/04/30 23:55:59;;;;;;;;;;;;;;;8.84;100.00;98848.41;10403801;28;20330;-79
